createdAt,value
2023-01-05T07:17:19.371Z,99627.63
2023-01-05T07:19:56.991Z,99630.75
2023-01-05T07:22:34.073Z,99634.06
2023-01-05T07:25:12.564Z,99635.47
2023-01-05T07:27:55.234Z,99631.53
2023-01-05T07:30:32.839Z,99626.25
2023-01-05T07:33:12.355Z,99626.50
2023-01-05T07:35:49.717Z,99634.22
2023-01-05T07:38:26.538Z,99631.44
2023-01-05T07:41:04.268Z,99636.16
2023-01-05T07:43:41.123Z,99629.69
2023-01-05T07:46:19.069Z,99643.59
2023-01-05T07:48:58.955Z,99633.13
2023-01-05T07:51:37.560Z,99634.97
2023-01-05T07:54:14.507Z,99639.63
2023-01-05T07:56:51.906Z,99647.94
2023-01-05T07:59:28.775Z,99651.28
2023-01-05T08:02:06.113Z,99650.44
2023-01-05T08:04:45.812Z,99644.09
2023-01-05T08:07:23.093Z,99656.81
2023-01-05T08:10:12.252Z,99663.78
2023-01-05T08:13:01.663Z,99654.91
2023-01-05T08:15:38.634Z,99655.84
2023-01-05T08:18:15.835Z,99656.81
2023-01-05T08:21:01.127Z,99668.34
2023-01-05T08:23:39.530Z,99659.09
2023-01-05T08:26:18.913Z,99658.97
2023-01-05T08:28:56.935Z,99664.03
2023-01-05T08:31:37.898Z,99656.97
2023-01-05T08:34:15.583Z,99654.19
2023-01-05T08:36:55.009Z,99678.69
2023-01-05T08:39:32.325Z,99663.06
2023-01-05T08:42:09.306Z,99670.28
2023-01-05T08:44:46.477Z,99666.91
2023-01-05T08:47:28.007Z,99669.44
2023-01-05T08:50:06.653Z,99681.06
2023-01-05T08:52:46.306Z,99687.34
2023-01-05T08:55:23.578Z,99680.50
2023-01-05T08:58:00.789Z,99689.97
2023-01-05T09:00:38.446Z,99674.38
2023-01-05T09:03:15.428Z,99685.91
2023-01-05T09:05:55.750Z,99681.34
2023-01-05T09:08:36.801Z,99695.97
2023-01-05T09:11:17.020Z,99684.06
2023-01-05T09:13:56.928Z,99695.47
2023-01-05T09:19:34.154Z,99694.03
2023-01-05T09:22:11.745Z,99695.84
2023-01-05T09:24:51.217Z,99689.84
2023-01-05T09:27:28.469Z,99702.19
2023-01-05T09:30:05.630Z,99703.88
2023-01-05T09:32:42.976Z,99695.25
2023-01-05T09:35:20.305Z,99703.31
2023-01-05T09:37:57.954Z,99694.41
2023-01-05T09:40:44.410Z,99701.97
2023-01-05T09:43:29.277Z,99694.53
2023-01-05T09:46:09.693Z,99695.25
2023-01-05T09:48:53.927Z,99698.13
2023-01-05T09:51:30.876Z,99702.66
2023-01-05T09:54:09.304Z,99703.16
2023-01-05T09:59:52.659Z,99709.91
2023-01-05T10:02:37.008Z,99706.50
2023-01-05T10:05:17.666Z,99710.72
2023-01-05T10:08:02.029Z,99707.97
2023-01-05T10:11:13.467Z,99708.19
2023-01-05T10:14:02.474Z,99706.28
2023-01-05T10:16:39.943Z,99708.19
2023-01-05T10:19:19.708Z,99709.41
2023-01-05T10:22:09.619Z,99721.38
2023-01-05T10:24:56.772Z,99701.97
2023-01-05T10:27:42.886Z,99720.19
2023-01-05T10:30:28.364Z,99709.16
2023-01-05T10:33:40.171Z,99695.59
2023-01-05T10:40:03.940Z,99698.81
2023-01-05T10:42:55.057Z,99705.59
2023-01-05T10:45:51.181Z,99707.50
2023-01-05T10:48:37.935Z,99704.38
2023-01-05T10:51:16.197Z,99695.03
2023-01-05T10:53:53.672Z,99700.88
2023-01-05T10:56:33.005Z,99702.81
2023-01-05T10:59:15.736Z,99698.59
2023-01-05T11:01:56.122Z,99708.59
2023-01-05T11:04:35.394Z,99711.09
2023-01-05T11:07:13.197Z,99717.44
2023-01-05T11:09:52.495Z,99713.47
2023-01-05T11:12:30.657Z,99715.41
2023-01-05T11:15:09.531Z,99722.13
2023-01-05T11:17:49.845Z,99728.13
2023-01-05T11:20:26.767Z,99731.75
2023-01-05T11:23:04.098Z,99733.16
2023-01-05T11:25:43.447Z,99729.81
2023-01-05T11:28:21.821Z,99743.59
2023-01-05T11:31:05.367Z,99736.75
2023-01-05T11:33:47.892Z,99750.44
2023-01-05T11:36:24.938Z,99747.56
2023-01-05T11:39:02.651Z,99759.06
2023-01-05T11:41:39.663Z,99753.16
2023-01-05T11:44:25.857Z,99756.16
2023-01-05T11:47:03.266Z,99776.06
2023-01-05T11:49:43.248Z,99771.16
2023-01-05T11:52:38.978Z,99781.84
2023-01-05T11:55:37.004Z,99778.47
2023-01-05T11:58:27.935Z,99779.41
2023-01-05T12:01:51.469Z,99792.34
2023-01-05T12:05:04.823Z,99796.66
2023-01-05T12:07:49.896Z,99794.03
2023-01-05T12:10:51.911Z,99800.25
2023-01-05T12:14:04.248Z,99802.53
2023-01-05T12:16:52.724Z,99806.28
2023-01-05T12:20:00.205Z,99819.72
2023-01-05T12:23:06.354Z,99831.63
2023-01-05T12:26:00.941Z,99814.06
2023-01-05T12:36:02.922Z,99829.03
2023-01-05T12:38:58.867Z,99834.53
2023-01-05T12:42:08.748Z,99845.34
2023-01-05T12:45:31.322Z,99847.69
2023-01-05T12:48:13.147Z,99849.22
2023-01-05T12:50:59.521Z,99850.69
2023-01-05T12:53:53.407Z,99860.59
2023-01-05T12:56:37.464Z,99880.47
2023-01-05T12:59:20.573Z,99877.59
2023-01-05T13:02:06.742Z,99891.66
2023-01-05T13:04:54.338Z,99902.41
2023-01-05T13:07:41.393Z,99908.31
2023-01-05T13:10:25.837Z,99915.63
2023-01-05T13:13:07.388Z,99921.41
2023-01-05T13:15:49.513Z,99936.50
2023-01-05T13:18:30.192Z,99941.56
2023-01-05T13:21:14.844Z,99954.75
2023-01-05T13:23:59.045Z,99966.25
2023-01-05T13:26:38.282Z,99989.25
2023-01-05T13:29:26.305Z,100017.31
2023-01-05T13:32:33.160Z,100021.00
2023-01-05T13:35:42.363Z,100044.81
2023-01-05T13:38:51.962Z,100067.00
2023-01-05T13:41:58.001Z,100079.63
2023-01-05T13:45:06.124Z,100087.22
2023-01-05T13:51:27.013Z,100102.97
2023-01-05T13:54:13.224Z,100115.25
2023-01-05T13:56:54.291Z,100118.69
2023-01-05T13:59:43.945Z,100138.44
2023-01-05T14:02:35.977Z,100165.16
2023-01-05T14:05:30.501Z,100171.03
2023-01-05T14:08:18.156Z,100179.31
2023-01-05T14:11:12.985Z,100206.00
2023-01-05T14:13:57.869Z,100209.56
2023-01-05T14:16:58.150Z,100233.47
2023-01-05T14:19:55.601Z,100227.06
2023-01-05T14:22:42.819Z,100250.00
2023-01-05T14:25:55.970Z,100256.50
2023-01-05T14:28:52.241Z,100261.28
2023-01-05T14:31:50.922Z,100266.53
2023-01-05T14:34:29.999Z,100280.25
2023-01-05T14:37:10.186Z,100292.72
2023-01-05T14:39:49.200Z,100299.75
2023-01-05T14:42:35.973Z,100325.72
2023-01-05T14:45:27.699Z,100316.69
2023-01-05T14:48:09.222Z,100327.53
2023-01-05T14:50:48.033Z,100341.66
2023-01-05T14:53:44.350Z,100344.44
2023-01-05T14:56:26.905Z,100357.75
2023-01-05T14:59:20.367Z,100368.88
2023-01-05T15:02:03.766Z,100383.31
2023-01-05T15:04:44.013Z,100398.31
2023-01-05T15:07:42.156Z,100413.94
2023-01-05T15:10:43.120Z,100423.69
2023-01-05T15:14:16.461Z,100430.03
2023-01-05T15:17:48.345Z,100440.72
2023-01-05T15:21:20.471Z,100454.81
2023-01-05T15:24:41.331Z,100462.09
2023-01-05T15:27:55.600Z,100476.28
2023-01-05T15:31:11.761Z,100487.53
2023-01-05T15:34:01.643Z,100495.03
2023-01-05T15:36:45.756Z,100496.97
2023-01-05T15:39:33.165Z,100506.72
2023-01-05T15:42:12.461Z,100524.00
2023-01-05T15:44:52.672Z,100544.44
2023-01-05T15:47:32.771Z,100550.78
2023-01-05T15:50:23.280Z,100545.53
2023-01-05T15:53:02.780Z,100566.72
2023-01-05T15:55:47.038Z,100583.44
2023-01-05T15:58:25.982Z,100583.72
2023-01-05T16:01:13.928Z,100594.25
2023-01-05T16:03:52.534Z,100617.75
2023-01-05T16:06:33.595Z,100621.28
2023-01-05T16:09:22.131Z,100609.41
2023-01-05T16:12:03.759Z,100647.13
2023-01-05T16:14:45.780Z,100658.41
2023-01-05T16:17:26.298Z,100673.84
2023-01-05T16:20:08.836Z,100690.69
2023-01-05T16:22:57.961Z,100696.88
2023-01-05T16:25:44.487Z,100714.81
2023-01-05T16:28:25.393Z,100722.69
2023-01-05T16:31:02.297Z,100720.28
2023-01-05T16:33:40.989Z,100726.53
2023-01-05T16:36:26.544Z,100738.09
2023-01-05T16:39:27.878Z,100745.28
2023-01-05T16:42:40.490Z,100760.91
2023-01-05T16:45:26.304Z,100763.13
2023-01-05T16:48:03.877Z,100770.28
2023-01-05T16:50:58.199Z,100768.41
2023-01-05T16:53:36.870Z,100776.38
2023-01-05T16:56:46.418Z,100784.94
2023-01-05T16:59:48.640Z,100804.06
2023-01-05T17:02:49.898Z,100823.50
2023-01-05T17:05:31.329Z,100820.06
2023-01-05T17:08:22.525Z,100819.38
2023-01-05T17:11:02.113Z,100820.94
2023-01-05T17:13:47.967Z,100824.34
2023-01-05T17:16:25.954Z,100836.63
2023-01-05T17:19:03.774Z,100842.06
2023-01-05T17:21:40.705Z,100857.00
2023-01-05T17:24:18.304Z,100853.59
2023-01-05T17:26:55.175Z,100870.34
2023-01-05T17:29:37.485Z,100870.34
2023-01-05T17:32:14.894Z,100882.47
2023-01-05T17:34:52.997Z,100883.53
2023-01-05T17:37:34.311Z,100890.50
2023-01-05T17:40:22.933Z,100893.38
2023-01-05T17:43:00.053Z,100902.84
2023-01-05T17:45:44.211Z,100908.75
2023-01-05T17:48:21.484Z,100915.03
2023-01-05T17:50:58.865Z,100915.16
2023-01-05T17:53:36.373Z,100929.75
2023-01-05T17:56:15.310Z,100933.47
2023-01-05T17:58:54.872Z,100937.88
2023-01-05T18:01:36.363Z,100929.09
2023-01-05T18:04:13.970Z,100953.63
2023-01-05T18:06:52.238Z,100965.97
2023-01-05T18:09:29.568Z,100981.59
2023-01-05T18:12:08.978Z,100988.41
2023-01-05T18:14:46.890Z,101006.81
2023-01-05T18:17:27.595Z,101011.97
2023-01-05T18:20:09.224Z,101022.63
2023-01-05T18:22:47.976Z,101026.03
2023-01-05T18:25:26.203Z,101032.97
2023-01-05T18:28:04.645Z,101034.91
2023-01-05T18:30:46.814Z,101037.84
2023-01-05T18:33:27.977Z,101052.41
2023-01-05T18:36:11.534Z,101041.91
2023-01-05T18:38:49.026Z,101053.28
2023-01-05T18:41:28.533Z,101060.59
2023-01-05T18:44:06.387Z,101068.50
2023-01-05T18:46:45.138Z,101064.03
2023-01-05T18:49:25.102Z,101073.53
2023-01-05T18:52:02.854Z,101077.94
2023-01-05T18:54:40.653Z,101090.16
2023-01-05T18:57:18.615Z,101093.97
2023-01-05T18:59:56.524Z,101113.25
2023-01-05T19:02:36.941Z,101127.19
2023-01-05T19:05:17.347Z,101123.75
2023-01-05T19:07:56.700Z,101135.97
2023-01-05T19:10:35.356Z,101136.03
2023-01-05T19:13:14.235Z,101141.22
2023-01-05T19:15:51.110Z,101156.09
2023-01-05T19:18:29.263Z,101160.38
2023-01-05T19:21:09.958Z,101166.50
2023-01-05T19:23:49.420Z,101181.50
2023-01-05T19:26:29.183Z,101182.25
2023-01-05T19:29:10.193Z,101193.66
2023-01-05T19:31:48.062Z,101199.03
2023-01-05T19:34:25.893Z,101203.53
2023-01-05T19:37:06.625Z,101209.69
2023-01-05T19:39:46.080Z,101204.59
2023-01-05T19:42:24.142Z,101214.22
2023-01-05T19:45:03.919Z,101222.03
2023-01-05T19:47:43.666Z,101235.41
2023-01-05T19:50:26.950Z,101246.63
2023-01-05T19:53:07.055Z,101255.63
2023-01-05T19:55:45.188Z,101270.88
2023-01-05T19:58:26.580Z,101270.88
2023-01-05T20:01:10.269Z,101282.59
2023-01-05T20:03:48.501Z,101272.03
2023-01-05T20:06:29.518Z,101274.91
2023-01-05T20:09:14.087Z,101277.81
2023-01-05T20:12:13.740Z,101289.94
2023-01-05T20:14:54.462Z,101285.44
2023-01-05T20:17:37.230Z,101284.47
2023-01-05T20:20:17.526Z,101301.13
2023-01-05T20:22:57.614Z,101303.63
2023-01-05T20:25:41.192Z,101303.59
2023-01-05T20:28:20.897Z,101320.50
2023-01-05T20:30:59.134Z,101322.28
2023-01-05T20:33:38.008Z,101333.84
2023-01-05T20:36:19.109Z,101335.69
2023-01-05T20:38:59.283Z,101342.75
2023-01-05T20:41:47.834Z,101348.09
2023-01-05T20:44:32.538Z,101351.06
2023-01-05T20:47:14.156Z,101358.00
2023-01-05T20:49:53.908Z,101359.59
2023-01-05T20:52:33.629Z,101368.22
2023-01-05T20:55:11.252Z,101369.28
2023-01-05T20:57:52.466Z,101383.19
2023-01-05T21:00:31.100Z,101385.94
2023-01-05T21:03:08.902Z,101380.00
2023-01-05T21:05:50.087Z,101395.63
2023-01-05T21:08:27.197Z,101397.41
2023-01-05T21:11:07.165Z,101399.88
2023-01-05T21:13:47.659Z,101410.38
2023-01-05T21:16:33.728Z,101426.97
2023-01-05T21:19:27.918Z,101416.50
2023-01-05T21:22:09.529Z,101426.25
2023-01-05T21:24:47.694Z,101434.13
2023-01-05T21:27:26.431Z,101442.88
2023-01-05T21:30:07.483Z,101448.09
2023-01-05T21:32:47.960Z,101448.19
2023-01-05T21:35:26.401Z,101457.03
2023-01-05T21:38:04.212Z,101462.50
2023-01-05T21:40:41.259Z,101461.69
2023-01-05T21:43:18.603Z,101478.31
2023-01-05T21:45:58.546Z,101489.66
2023-01-05T21:48:36.081Z,101492.22
2023-01-05T21:51:26.019Z,101503.63
2023-01-05T21:54:15.533Z,101499.38
2023-01-05T21:56:52.530Z,101507.16
2023-01-05T21:59:30.378Z,101525.50
2023-01-05T22:02:10.183Z,101519.41
2023-01-05T22:04:49.483Z,101524.56
2023-01-05T22:07:26.720Z,101513.13
2023-01-05T22:10:04.013Z,101517.47
2023-01-05T22:12:41.576Z,101516.53
2023-01-05T22:15:19.858Z,101519.16
2023-01-05T22:17:59.962Z,101535.69
2023-01-05T22:20:37.970Z,101544.78
2023-01-05T22:23:16.050Z,101549.09
